Tropical Cyclones
[Index]
Main Index Home Page Stock Weather Photos Extreme Storms Discussion Storm News and Storm Chasing Reports Tropical Cyclones / Hurricanes / Typhoons Weather Data and Links Wild Fires / Bushfires Weather Observation Techniques Weather Picture Catalogue Tornado Pictures and Reports Stock Video Footage and DVDs for sale
Season 1999-2000 Tropical Cyclone JOHN Track Map
Season 1999-2000 Summaries: [BoM-AU] [JTWC-AU] [JTWC-SIO] [JTWC-SPAC] [JTWC-SH]
<<- Previous TC | BoM 1999-2000 Season | Next TC ->>

click for intensity scale information  Lat/long Grid: Show Hide

 Date Labels: Show Hide

Bureau of Meteorology Tropical Cyclone Data

Name: JOHN
Number: 831 / 199900_02

09 Dec 1999 07:00 UTC to 16 Dec 1999 01:00 UTC

    date/time    lat    long    hPa   cat  kts
1999-12-09 07   10.5   122.5   1003         23          
1999-12-09 10   10.5   122.1   1003         23          
1999-12-09 16   10.9   121.2   1003         23          
1999-12-09 19   11.2   121.0   1002         23          
1999-12-09 22   11.5   120.9   1002         23          
1999-12-10 04   11.9   120.7   1002         23          
1999-12-10 07   12.5   120.6   1000         27          
1999-12-10 10   12.6   120.6   1000         27          
1999-12-10 16   13.0   120.5   1000         27          
1999-12-10 22   13.3   120.1    998         29          
1999-12-11 04   13.5   120.0    998         29          
1999-12-11 07   13.5   120.0    998         29          
1999-12-11 10   13.6   119.9    998         29          
1999-12-11 13   13.6   119.9    995    1    35          
1999-12-11 16   13.7   119.8    995    1    35          
1999-12-11 19   13.8   119.7    985    2    49          
1999-12-11 22   13.9   119.6    985    2    49          
1999-12-12 01   14.0   119.4    980    2    54          
1999-12-12 04   14.2   119.4    975    2    60          
1999-12-12 07   14.5   119.4    975    2    60          
1999-12-12 10   14.8   119.4    975    2    60          
1999-12-12 13   15.1   119.4    975    2    60          
1999-12-12 16   15.3   119.3    975    2    60          
1999-12-12 19   15.6   119.2    975    2    60          
1999-12-12 22   15.9   119.2    970    3    64          
1999-12-13 01   16.3   118.9    965    3    70          
1999-12-13 04   16.6   118.6    965    3    70          
1999-12-13 07   16.8   118.6    965    3    70          
1999-12-13 10   17.1   118.5    965    3    70          
1999-12-13 13   17.3   118.3    960    3    76          
1999-12-13 16   17.5   118.1    950    4    84          
1999-12-13 19   17.7   118.0    940    4    93          
1999-12-13 22   17.9   117.8    930    4    101          
1999-12-14 01   18.2   117.6    915    5    111          
1999-12-14 04   18.5   117.5    915    5    111          
1999-12-14 07   18.9   117.4    915    5    111          
1999-12-14 10   19.2   117.3    915    5    111          
1999-12-14 13   19.5   117.3    915    5    111          
1999-12-14 16   19.8   117.3    915    5    111          
1999-12-14 19   20.1   117.4    930    4    101          
1999-12-14 22   20.5   117.5    940    4    93          
1999-12-15 01   20.8   117.6    950    4    84          
1999-12-15 04   21.2   117.8    960    3    76          
1999-12-15 07   21.6   118.0    970    3    64          
1999-12-15 10   21.9   118.4    970    3    64          
1999-12-15 13   22.1   118.8    975    2    60          
1999-12-15 16   22.4   119.2    980    2    54          
1999-12-15 19   22.7   119.6    985    2    49          
1999-12-15 22   23.1   120.2    990    1    41          
1999-12-16 01   23.4   120.6    995    1    35          
Winds are 10-min average.

Tropical cyclone tracks developed by Michael Bath using data from the Bureau of Meteorology and Google Maps.


[Australian Severe Weather index] [Copyright Notice] [Email Contacts] [Search This Site] [Privacy Policy]
Document: tropical_cyclone_john.htm Updated: 30 May 2013